Flight Track Log - Related Links

Times and Time Zones

All times are in EDT time to prevent confusion due to time zone crossing. See the N552SR flight status page for this flight to view local times or setup timezone preferences in your user account.

Time Position Orientation Groundspeed Altitude Reporting Facility
EDT Latitude Longitude Course Direction KTS MPH feet Rate Location/Type
Wed 11:52:02 AM 41.2000 -73.1667 360° North 112 129 1,800  Level New York TRACON
Wed 11:53:02 AM 41.2333 -73.1667 360° North 127 146 2,700 850 Climbing New York TRACON
Wed 11:54:02 AM 41.2667 -73.1833 339° North 126 145 3,500 789 Climbing New York TRACON
Wed 11:54:56 AM 41.2833 -73.2000 323° Northwest 118 136 4,200 800 Climbing New York TRACON
Wed 11:56:02 AM 41.3167 -73.2000 360° North 122 140 5,100 810 Climbing New York TRACON
Wed 11:57:02 AM 41.3500 -73.2167 339° North 115 132 5,900 750 Climbing New York TRACON
Wed 11:58:02 AM 41.3833 -73.2333 339° North 104 120 6,600 550 Climbing New York TRACON
Wed 11:59:02 AM 41.4167 -73.2333 360° North 124 143 7,000 150 Climbing New York TRACON
Wed 12:00:02 PM 41.4500 -73.2500 339° North 131 151 6,900  Descending New York TRACON
Wed 12:00:51 PM 41.4783 -73.2631 341° North 139 160 7,000 330 Climbing Boston Center
Wed 12:01:51 PM 41.5158 -73.2744 347° North 125 144 7,500 400 Climbing Boston Center
Wed 12:02:51 PM 41.5428 -73.2833 346° North 110 127 7,800 200 Climbing Boston Center
Wed 12:03:51 PM 41.5739 -73.2947 345° North 110 127 7,900 50 Climbing Boston Center
Wed 12:04:51 PM 41.6114 -73.3092 344° North 116 133 7,900  Level Boston Center
Wed 12:05:51 PM 41.6406 -73.3233 340° North 126 145 7,900  Level Boston Center
Wed 12:06:51 PM 41.6569 -73.3597 301° West 120 138 7,900 50 Level Boston Center
Wed 12:07:51 PM 41.6814 -73.4047 306° West 130 150 8,000 50 Climbing Boston Center
Wed 12:08:51 PM 41.7061 -73.4494 307° West 136 157 8,000  Level Boston Center
Wed 12:09:51 PM 41.7267 -73.4858 307° West 136 157 8,000 -50 Level Boston Center
Wed 12:10:51 PM 41.7492 -73.5281 306° West 136 157 7,900  Descending Boston Center
Wed 12:11:51 PM 41.7694 -73.5644 307° West 136 157 8,000 50 Climbing Boston Center
Wed 12:12:51 PM 41.7961 -73.6097 308° West 136 157 8,000  Level Boston Center
Wed 12:13:51 PM 41.8167 -73.6489 305° West 136 157 8,000  Level Boston Center
Wed 12:14:51 PM 41.8392 -73.6939 304° West 136 157 8,000 -50 Level Boston Center
Wed 12:15:51 PM 41.8617 -73.7336 307° West 136 157 7,900  Descending Boston Center
Wed 12:16:51 PM 41.8881 -73.7786 308° West 136 157 8,000 50 Climbing Boston Center
Wed 12:17:51 PM 41.9086 -73.8181 305° West 141 162 8,000  Level Boston Center
Wed 12:18:51 PM 41.9350 -73.8633 308° West 146 168 8,000  Level Boston Center
Wed 12:19:51 PM 41.9553 -73.9058 303° West 146 168 8,000  Level Boston Center
Wed 12:20:51 PM 41.9819 -73.9511 308° West 146 168 8,000  Level Boston Center
Wed 12:21:51 PM 42.0022 -73.9906 305° West 146 168 8,000  Level Boston Center
Wed 12:22:51 PM 42.0306 -74.0417 307° West 146 168 8,000  Level Boston Center
Wed 12:23:51 PM 42.0508 -74.0814 305° West 145 167 8,000 50 Level Boston Center
Wed 12:24:51 PM 42.0731 -74.1239 305° West 145 167 8,100 50 Climbing Boston Center
Wed 12:25:51 PM 42.0994 -74.1722 306° West 150 173 8,100  Level Boston Center
Wed 12:26:51 PM 42.1197 -74.2089 307° West 145 167 8,100  Level Boston Center
Wed 12:27:51 PM 42.1461 -74.2575 306° West 145 167 8,100  Level Boston Center
Wed 12:28:51 PM 42.1664 -74.2972 305° West 151 174 8,100  Level Boston Center
Wed 12:29:51 PM 42.1928 -74.3456 306° West 150 173 8,100  Level Boston Center
Wed 12:31:03 PM 42.2150 -74.3856 307° West 150 173 8,100  Level Boston Center
Wed 12:32:03 PM 42.2453 -74.4369 309° West 150 173 8,100 -50 Level Boston Center
Wed 12:33:03 PM 42.2717 -74.4828 308° West 150 173 8,000  Descending Boston Center
Wed 12:34:03 PM 42.2936 -74.5283 303° West 150 173 8,100 50 Climbing Boston Center
Wed 12:35:03 PM 42.3136 -74.5767 299° West 150 173 8,100 -50 Level Boston Center
Wed 12:36:03 PM 42.3400 -74.6169 312° West 142 163 8,000 -50 Descending Boston Center
Wed 12:37:03 PM 42.3639 -74.6656 304° West 142 163 8,000  Level Boston Center
Wed 12:38:15 PM 42.3881 -74.7114 306° West 152 175 8,000  Level Boston Center
Wed 12:39:15 PM 42.4183 -74.7661 307° West 152 175 8,000  Level Boston Center
Wed 12:40:15 PM 42.4383 -74.8033 306° West 152 175 8,000  Level Boston Center
Wed 12:41:15 PM 42.4683 -74.8581 307° West 157 181 8,000  Level Boston Center
Wed 12:42:15 PM 42.4925 -74.9067 304° West 157 181 8,000  Level Boston Center
Wed 12:43:15 PM 42.5164 -74.9528 305° West 151 174 8,000  Level Boston Center
Wed 12:44:15 PM 42.5403 -74.9989 305° West 151 174 8,000  Level Boston Center
Wed 12:45:15 PM 42.5642 -75.0478 304° West 151 174 8,000  Level Boston Center
Wed 12:46:15 PM 42.5903 -75.0939 308° West 151 174 8,000  Level Boston Center
Wed 12:47:15 PM 42.6142 -75.1400 305° West 151 174 8,000  Level Boston Center
Wed 12:48:03 PM 42.6381 -75.1892 303° West 162 186 8,000  Level Boston Center
Wed 12:48:39 PM 42.6442 -75.1950 325° Northwest 151 174 8,000  Level Boston Center
Wed 12:49:03 PM 42.6642 -75.2356 304° West 159 183 8,000  Level Boston Center
Wed 12:49:39 PM 42.6739 -75.2558 303° West 156 180 8,000  Level Boston Center
Wed 12:50:04 PM 42.6900 -75.2847 307° West 155 178 8,000  Level Boston Center
Wed 12:50:39 PM 42.7019 -75.3050 309° West 156 180 8,000  Level Boston Center
Wed 12:51:05 PM 42.7117 -75.3308 297° West 155 178 8,000  Level Boston Center
Wed 12:51:39 PM 42.7258 -75.3514 313° West 151 174 8,000  Level Boston Center
Wed 12:52:05 PM 42.7356 -75.3800 295° West 155 178 8,000  Level Boston Center
Wed 12:52:39 PM 42.7517 -75.4006 317° Northwest 151 174 8,000 -98 Level Boston Center
Wed 12:53:06 PM 42.7633 -75.4322 297° West 156 180 7,900 -300 Descending Boston Center
Wed 12:53:39 PM 42.7753 -75.4472 317° Northwest 151 174 7,700 -492 Descending Boston Center
Wed 12:54:07 PM 42.7892 -75.4817 299° West 162 186 7,400 -400 Descending Boston Center
Wed 12:54:39 PM 42.8031 -75.5022 313° West 156 180 7,300 -400 Descending Boston Center
Wed 12:55:07 PM 42.8189 -75.5369 302° West 168 193 7,000 -500 Descending Boston Center
Wed 12:55:39 PM 42.8267 -75.5514 306° West 163 188 6,800 -492 Descending Boston Center
Wed 12:56:08 PM 42.8467 -75.5867 308° West 171 197 6,500 -600 Descending Boston Center
Wed 12:56:39 PM 42.8567 -75.6069 304° West 163 188 6,200 -590 Descending Boston Center
Wed 12:57:09 PM 42.8722 -75.6417 301° West 176 203 5,900 -500 Descending Boston Center
Wed 12:57:39 PM 42.8844 -75.6564 319° Northwest 170 196 5,700 -500 Descending Boston Center
Wed 12:58:09 PM 42.8978 -75.6939 296° West 171 197 5,400 -500 Descending Boston Center
Wed 12:58:39 PM 42.9119 -75.7117 317° Northwest 175 201 5,200 -537 Descending Boston Center
Wed 12:59:16 PM 42.9294 -75.7553 299° West 170 196 4,800 -500 Descending Boston Center
Wed 12:59:51 PM 42.9375 -75.7614 331° Northwest 175 201 4,600 -590 Descending Boston Center
Wed 01:00:17 PM 42.9592 -75.8108 301° West 180 207 4,200 -500 Descending Boston Center
Wed 01:00:51 PM 42.9692 -75.8256 313° West 188 216 4,100 -222 Descending Boston Center
Wed 01:01:11 PM 42.9847 -75.8633 299° West 181 208 4,000 -100 Descending Boston Center
Wed 01:01:51 PM 43.0006 -75.8869 313° West 182 209 4,000 -436 Level Boston Center
Wed 01:02:06 PM 43.0122 -75.9131 301° West 173 199 3,600 -900 Descending Boston Center
Wed 01:02:51 PM 43.0281 -75.9425 306° West 182 209 3,100 -806 Descending Boston Center
Wed 01:03:13 PM 43.0397 -75.9744 297° West 179 206 2,700 -951 Descending Boston Center
Wed 01:04:13 PM 43.0697 -76.0158 315° West 160 184 1,800 -900 Descending Boston Center
Wed 01:06:00 PM 43.1000 -76.1000 304° West  Level FlightAware Approximate
Wed 01:13:00 PM 43.1112 -76.1063 304° West  Level Estimated
Wed 01:14:00 PM 43.1112 -76.1063 304° West  Level Estimated
Wed 01:15:00 PM 43.1112 -76.1063 304° West  Level Estimated

Login

Don't have an account? Register now (free) for customized features, flight alerts, and more!